Time;durP1;ratioP1;P1;durP2;ratioP2;P2;SDS_P1;SDS_P2;PMS_P1;PMS_P2;Temp;Humidity;BMP_temperature;BMP_pressure;BME280_temperature;BME280_humidity;BME280_pressure;Samples;Min_cycle;Max_cycle;Signal;HPM_P1;HPM_P2
2022/03/12 00:01:40;;;;;;;;;;;6.60;68.70;;;;;;5072626;28;19925;-64
2022/03/12 00:04:06;;;;;;;;;;;6.60;68.40;;;;;;5071994;28;19924;-59
2022/03/12 00:06:32;;;;;;;;;;;6.60;68.60;;;;;;5071715;28;19929;-59
2022/03/12 00:08:58;;;;;;;;;;;6.60;68.50;;;;;;5071964;28;19935;-60
2022/03/12 00:11:25;;;;;;;;;;;6.60;68.40;;;;;;5071473;28;20011;-60
2022/03/12 00:13:51;;;;;;;;;;;6.60;68.90;;;;;;5071241;28;19931;-59
2022/03/12 00:16:24;;;;;;;;;;;6.60;69.00;;;;;;5072756;28;19932;-60
2022/03/12 00:19:02;;;;;;;;;;;6.60;69.00;;;;;;5072253;28;20038;-59
2022/03/12 00:21:29;;;;;;;;;;;6.60;68.60;;;;;;5072480;28;20439;-60
2022/03/12 00:23:58;;;;;;;;;;;6.60;68.60;;;;;;5072323;28;19925;-59
2022/03/12 00:26:23;;;;;;;;;;;6.60;68.80;;;;;;5071222;28;19924;-59
2022/03/12 00:28:50;;;;;;;;;;;6.60;68.90;;;;;;5072176;28;19924;-59
2022/03/12 00:31:16;;;;;;;;;;;6.60;68.70;;;;;;5072530;28;19978;-59
2022/03/12 00:33:41;;;;;;;;;;;6.60;68.80;;;;;;5072341;28;19929;-65
2022/03/12 00:36:07;;;;;;;;;;;6.60;68.90;;;;;;5072169;28;19925;-60
2022/03/12 00:38:33;;;;;;;;;;;6.60;68.70;;;;;;5072165;28;19931;-61
2022/03/12 00:41:01;;;;;;;;;;;6.60;68.80;;;;;;5070871;28;19925;-60
2022/03/12 00:43:27;;;;;;;;;;;6.60;69.00;;;;;;5072243;28;20273;-60
2022/03/12 00:45:52;;;;;;;;;;;6.60;69.30;;;;;;5071925;28;20007;-59
2022/03/12 00:48:18;;;;;;;;;;;6.50;69.20;;;;;;5070881;28;19947;-58
2022/03/12 00:50:44;;;;;;;;;;;6.50;69.00;;;;;;5072078;28;19925;-64
2022/03/12 00:53:09;;;;;;;;;;;6.50;69.30;;;;;;5071904;28;20366;-60
2022/03/12 00:55:35;;;;;;;;;;;6.40;69.40;;;;;;5071244;28;19924;-60
2022/03/12 00:58:01;;;;;;;;;;;6.40;69.30;;;;;;5070240;28;19925;-62
2022/03/12 01:00:27;;;;;;;;;;;6.40;69.20;;;;;;5072034;28;19978;-59
2022/03/12 01:02:53;;;;;;;;;;;6.30;69.00;;;;;;5071556;28;19925;-60
2022/03/12 01:05:21;;;;;;;;;;;6.40;69.20;;;;;;5071104;28;19924;-61
2022/03/12 01:07:47;;;;;;;;;;;6.40;69.20;;;;;;5070331;28;19924;-64
2022/03/12 01:10:13;;;;;;;;;;;6.40;69.40;;;;;;5071960;28;20278;-59
2022/03/12 01:12:38;;;;;;;;;;;6.40;69.20;;;;;;5071851;28;19967;-59
2022/03/12 01:15:05;;;;;;;;;;;6.40;69.10;;;;;;5071483;28;19925;-60
2022/03/12 01:17:34;;;;;;;;;;;6.40;69.20;;;;;;5070603;28;19993;-61
2022/03/12 01:20:00;;;;;;;;;;;6.40;69.30;;;;;;5071098;28;19928;-59
2022/03/12 01:22:29;;;;;;;;;;;6.40;69.30;;;;;;5071745;28;20234;-59
2022/03/12 01:24:55;;;;;;;;;;;6.40;69.20;;;;;;5071658;28;19964;-59
2022/03/12 01:27:20;;;;;;;;;;;6.40;69.50;;;;;;5070888;28;20040;-59
2022/03/12 01:29:46;;;;;;;;;;;6.40;69.30;;;;;;5071061;28;19932;-59
2022/03/12 01:32:12;;;;;;;;;;;6.40;69.20;;;;;;5071494;28;19955;-62
2022/03/12 01:34:37;;;;;;;;;;;6.40;69.50;;;;;;5071954;28;20289;-60
2022/03/12 01:37:04;;;;;;;;;;;6.30;69.60;;;;;;5070209;28;20281;-61
2022/03/12 01:39:29;;;;;;;;;;;6.30;69.50;;;;;;5070282;28;19925;-60
2022/03/12 01:41:55;;;;;;;;;;;6.30;69.50;;;;;;5071537;28;20016;-60
2022/03/12 01:44:21;;;;;;;;;;;6.30;69.70;;;;;;5070534;28;19985;-58
2022/03/12 01:46:47;;;;;;;;;;;6.30;69.80;;;;;;5054109;28;20023;-60
2022/03/12 01:49:15;;;;;;;;;;;6.30;69.80;;;;;;5070153;28;19930;-61
2022/03/12 01:51:41;;;;;;;;;;;6.30;70.00;;;;;;5070161;28;20401;-61
2022/03/12 01:54:07;;;;;;;;;;;6.30;70.00;;;;;;5071390;28;19924;-60
2022/03/12 01:56:38;;;;;;;;;;;6.30;70.00;;;;;;5071847;28;20069;-59
2022/03/12 01:59:04;;;;;;;;;;;6.30;69.90;;;;;;5070138;28;19987;-57
2022/03/12 02:01:30;;;;;;;;;;;6.20;70.10;;;;;;5071435;28;19924;-60
2022/03/12 02:03:56;;;;;;;;;;;6.30;69.80;;;;;;5071270;28;19932;-60
2022/03/12 02:06:24;;;;;;;;;;;6.20;69.90;;;;;;5071541;28;20392;-59
2022/03/12 02:08:58;;;;;;;;;;;6.20;70.10;;;;;;5071626;28;19932;-60
2022/03/12 02:11:31;;;;;;;;;;;6.20;70.40;;;;;;5071473;28;19931;-60
2022/03/12 02:13:58;;;;;;;;;;;6.20;70.10;;;;;;5071223;28;19925;-58
2022/03/12 02:16:24;;;;;;;;;;;6.20;70.10;;;;;;5071583;28;19932;-60
2022/03/12 02:18:50;;;;;;;;;;;6.20;70.40;;;;;;5069842;28;19931;-59
2022/03/12 02:21:28;;;;;;;;;;;6.20;70.50;;;;;;5070816;28;20182;-61
2022/03/12 02:23:54;;;;;;;;;;;6.20;70.90;;;;;;5070129;28;19924;-60
2022/03/12 02:26:20;;;;;;;;;;;6.10;71.00;;;;;;5053160;28;19931;-60
2022/03/12 02:28:46;;;;;;;;;;;6.10;71.20;;;;;;5071382;28;19947;-58
2022/03/12 02:31:14;;;;;;;;;;;6.10;71.30;;;;;;5070808;28;19951;-58
2022/03/12 02:33:41;;;;;;;;;;;6.10;72.10;;;;;;5073798;28;19925;-59
2022/03/12 02:36:11;;;;;;;;;;;6.10;71.90;;;;;;5073080;28;19931;-57
2022/03/12 02:38:36;;;;;;;;;;;6.10;71.80;;;;;;5074929;28;19924;-59
2022/03/12 02:41:10;;;;;;;;;;;6.10;71.90;;;;;;5074394;28;20267;-59
2022/03/12 02:43:43;;;;;;;;;;;6.10;71.80;;;;;;5073844;28;19931;-60
2022/03/12 02:46:09;;;;;;;;;;;6.00;72.10;;;;;;5057339;28;19925;-59
2022/03/12 02:48:35;;;;;;;;;;;6.20;71.90;;;;;;5074737;28;19931;-60
2022/03/12 02:51:01;;;;;;;;;;;6.00;72.00;;;;;;5072940;28;20015;-62
2022/03/12 02:53:26;;;;;;;;;;;6.00;72.20;;;;;;5056652;28;20298;-60
2022/03/12 02:55:52;;;;;;;;;;;6.00;72.40;;;;;;5074605;28;19928;-59
2022/03/12 02:58:18;;;;;;;;;;;5.90;72.40;;;;;;5073602;28;19925;-59
2022/03/12 03:00:43;;;;;;;;;;;5.90;72.70;;;;;;5073201;28;19931;-59
2022/03/12 03:03:09;;;;;;;;;;;5.90;72.60;;;;;;5072850;28;19924;-59
2022/03/12 03:05:46;;;;;;;;;;;5.90;72.60;;;;;;5074348;28;19931;-59
2022/03/12 03:08:19;;;;;;;;;;;5.90;73.00;;;;;;5073978;28;20028;-58
2022/03/12 03:10:48;;;;;;;;;;;5.90;72.90;;;;;;5073364;28;20231;-59
2022/03/12 03:13:17;;;;;;;;;;;5.80;73.20;;;;;;5072794;28;19929;-59
2022/03/12 03:15:45;;;;;;;;;;;5.80;73.60;;;;;;5074509;28;19961;-59
2022/03/12 03:18:12;;;;;;;;;;;5.80;73.70;;;;;;5073712;28;20281;-59
2022/03/12 03:20:38;;;;;;;;;;;5.80;73.70;;;;;;5074227;28;19978;-58
2022/03/12 03:23:05;;;;;;;;;;;5.70;74.20;;;;;;5073872;28;19928;-62
2022/03/12 03:25:31;;;;;;;;;;;5.80;74.60;;;;;;5072724;28;19925;-60
2022/03/12 03:27:57;;;;;;;;;;;5.70;74.70;;;;;;5056383;28;19924;-60
2022/03/12 03:30:23;;;;;;;;;;;5.70;74.90;;;;;;5072357;28;19932;-59
2022/03/12 03:32:48;;;;;;;;;;;5.70;75.20;;;;;;5073781;28;19928;-59
2022/03/12 03:35:14;;;;;;;;;;;5.70;75.30;;;;;;5073358;28;19936;-58
2022/03/12 03:37:39;;;;;;;;;;;5.70;75.90;;;;;;5073600;28;19947;-58
2022/03/12 03:40:05;;;;;;;;;;;5.60;75.60;;;;;;5072244;28;19924;-61
2022/03/12 03:42:31;;;;;;;;;;;5.60;76.00;;;;;;5055513;28;19925;-59
2022/03/12 03:45:02;;;;;;;;;;;5.60;75.80;;;;;;5072505;28;19924;-59
2022/03/12 03:47:28;;;;;;;;;;;5.60;76.20;;;;;;5071923;28;19963;-57
2022/03/12 03:49:54;;;;;;;;;;;5.60;76.40;;;;;;5073568;28;20021;-59
2022/03/12 03:52:20;;;;;;;;;;;5.60;76.60;;;;;;5072049;28;20038;-59
2022/03/12 03:54:46;;;;;;;;;;;5.60;76.80;;;;;;5073411;28;19971;-59
2022/03/12 03:57:13;;;;;;;;;;;5.50;76.70;;;;;;5072615;28;20124;-59
2022/03/12 03:59:39;;;;;;;;;;;5.50;77.00;;;;;;5073001;28;19924;-59
2022/03/12 04:02:05;;;;;;;;;;;5.50;76.60;;;;;;5073188;28;19986;-59
2022/03/12 04:04:35;;;;;;;;;;;5.50;77.10;;;;;;5071433;28;20433;-59
2022/03/12 04:07:01;;;;;;;;;;;5.50;77.20;;;;;;5072874;28;20412;-60
2022/03/12 04:09:27;;;;;;;;;;;5.50;77.10;;;;;;5072678;28;19924;-59
2022/03/12 04:11:53;;;;;;;;;;;5.50;77.50;;;;;;5073013;28;19971;-59
2022/03/12 04:14:18;;;;;;;;;;;5.50;77.40;;;;;;5072429;28;20066;-59
2022/03/12 04:16:44;;;;;;;;;;;5.50;77.50;;;;;;5072977;28;19979;-61
2022/03/12 04:19:10;;;;;;;;;;;5.40;77.90;;;;;;5072809;28;20333;-62
2022/03/12 04:21:35;;;;;;;;;;;5.40;77.90;;;;;;5072694;28;20037;-59
2022/03/12 04:24:01;;;;;;;;;;;5.40;77.90;;;;;;5072753;28;20381;-59
2022/03/12 04:26:27;;;;;;;;;;;5.40;78.30;;;;;;5105082;28;20007;-59
2022/03/12 04:28:53;;;;;;;;;;;5.40;78.40;;;;;;5072490;28;20374;-59
2022/03/12 04:31:19;;;;;;;;;;;5.40;78.40;;;;;;5071896;28;20030;-59
2022/03/12 04:33:45;;;;;;;;;;;5.30;78.50;;;;;;5072234;28;19985;-59
2022/03/12 04:36:13;;;;;;;;;;;5.30;78.30;;;;;;5072340;28;19924;-59
2022/03/12 04:38:38;;;;;;;;;;;5.30;78.30;;;;;;5072350;28;19924;-59
2022/03/12 04:41:06;;;;;;;;;;;5.30;78.70;;;;;;5071255;28;20385;-58
2022/03/12 04:43:31;;;;;;;;;;;5.20;79.10;;;;;;5071998;28;19932;-59
2022/03/12 04:45:59;;;;;;;;;;;5.30;79.60;;;;;;5072384;28;20330;-60
2022/03/12 04:48:25;;;;;;;;;;;5.30;79.70;;;;;;5054118;28;19925;-59
2022/03/12 04:50:51;;;;;;;;;;;5.20;79.40;;;;;;5072232;28;20019;-59
2022/03/12 04:53:17;;;;;;;;;;;5.20;79.50;;;;;;5071797;28;19970;-60
2022/03/12 04:55:44;;;;;;;;;;;5.30;79.20;;;;;;5071906;28;19929;-59
2022/03/12 04:58:12;;;;;;;;;;;5.20;78.90;;;;;;5072077;28;20396;-59
2022/03/12 05:00:39;;;;;;;;;;;5.20;79.30;;;;;;5071501;28;20442;-59
2022/03/12 05:03:19;;;;;;;;;;;5.20;79.80;;;;;;5104933;28;19973;-59
2022/03/12 05:05:46;;;;;;;;;;;5.20;80.20;;;;;;5072105;28;19947;-59
2022/03/12 05:08:13;;;;;;;;;;;5.20;80.30;;;;;;5104563;28;19929;-59
2022/03/12 05:10:39;;;;;;;;;;;5.10;80.20;;;;;;5071413;28;19931;-59
2022/03/12 05:13:05;;;;;;;;;;;5.10;80.10;;;;;;5071090;28;19925;-59
2022/03/12 05:15:34;;;;;;;;;;;5.10;80.40;;;;;;5071221;28;19924;-59
2022/03/12 05:17:59;;;;;;;;;;;5.10;80.50;;;;;;5071489;28;19925;-59
2022/03/12 05:20:26;;;;;;;;;;;5.10;81.00;;;;;;5070522;28;19925;-59
2022/03/12 05:22:52;;;;;;;;;;;5.10;80.70;;;;;;5070596;28;20030;-59
2022/03/12 05:25:19;;;;;;;;;;;5.20;81.10;;;;;;5070563;28;20365;-62
2022/03/12 05:27:46;;;;;;;;;;;5.10;81.10;;;;;;5070586;28;19931;-59
2022/03/12 05:30:11;;;;;;;;;;;5.10;81.00;;;;;;5071843;28;19928;-62
2022/03/12 05:32:37;;;;;;;;;;;5.00;81.10;;;;;;5069734;28;19924;-59
2022/03/12 05:35:04;;;;;;;;;;;5.10;81.20;;;;;;5070453;28;19931;-59
2022/03/12 05:37:29;;;;;;;;;;;5.00;81.00;;;;;;5071319;28;19994;-58
2022/03/12 05:39:55;;;;;;;;;;;5.10;81.00;;;;;;5071596;28;19979;-59
2022/03/12 05:42:22;;;;;;;;;;;5.00;81.40;;;;;;5071434;28;20294;-62
2022/03/12 05:44:48;;;;;;;;;;;5.00;81.70;;;;;;5070779;28;19924;-59
2022/03/12 05:47:13;;;;;;;;;;;5.00;81.50;;;;;;5070512;28;19935;-59
2022/03/12 05:49:39;;;;;;;;;;;5.00;81.40;;;;;;5069612;28;20089;-59
2022/03/12 05:52:05;;;;;;;;;;;5.00;81.50;;;;;;5071463;28;19928;-59
2022/03/12 05:54:31;;;;;;;;;;;5.00;81.90;;;;;;5070739;28;19925;-59
2022/03/12 05:56:57;;;;;;;;;;;4.90;82.40;;;;;;5071376;28;19924;-61
2022/03/12 05:59:22;;;;;;;;;;;4.90;82.90;;;;;;5070934;28;19935;-62
2022/03/12 06:01:50;;;;;;;;;;;4.90;82.80;;;;;;5070850;28;19928;-56
2022/03/12 06:04:19;;;;;;;;;;;4.90;83.40;;;;;;5071191;28;20055;-59
2022/03/12 06:06:46;;;;;;;;;;;4.90;83.50;;;;;;5069844;28;19924;-60
2022/03/12 06:09:12;;;;;;;;;;;4.80;83.30;;;;;;5056892;28;19936;-59
2022/03/12 06:11:38;;;;;;;;;;;4.80;83.70;;;;;;5074460;28;19925;-57
2022/03/12 06:14:04;;;;;;;;;;;4.80;83.60;;;;;;5075058;28;19978;-59
2022/03/12 06:16:31;;;;;;;;;;;4.90;83.40;;;;;;5074837;28;19928;-59
2022/03/12 06:18:57;;;;;;;;;;;4.90;83.60;;;;;;5075303;28;20428;-59
2022/03/12 06:21:22;;;;;;;;;;;4.90;83.70;;;;;;5074934;28;19928;-59
2022/03/12 06:23:49;;;;;;;;;;;4.90;83.60;;;;;;5073491;28;19924;-57
2022/03/12 06:26:17;;;;;;;;;;;4.90;83.40;;;;;;5073869;28;19924;-60
2022/03/12 06:28:44;;;;;;;;;;;4.90;83.30;;;;;;5074604;28;20301;-59
2022/03/12 06:31:12;;;;;;;;;;;4.90;83.20;;;;;;5074895;28;19924;-60
2022/03/12 06:33:42;;;;;;;;;;;4.90;83.40;;;;;;5073956;28;20377;-57
2022/03/12 06:36:09;;;;;;;;;;;4.90;83.90;;;;;;5074754;28;19924;-59
2022/03/12 06:38:36;;;;;;;;;;;4.90;84.10;;;;;;5107557;28;19924;-59
2022/03/12 06:41:01;;;;;;;;;;;4.90;84.00;;;;;;5057098;28;20423;-59
2022/03/12 06:43:28;;;;;;;;;;;4.80;83.90;;;;;;5074390;28;20015;-59
2022/03/12 06:45:58;;;;;;;;;;;5.00;84.30;;;;;;5073219;28;19935;-59
2022/03/12 06:48:25;;;;;;;;;;;4.80;84.20;;;;;;5074632;28;19925;-59
2022/03/12 06:50:52;;;;;;;;;;;4.80;84.10;;;;;;5056309;28;19964;-59
2022/03/12 06:53:18;;;;;;;;;;;4.80;83.80;;;;;;5074236;28;20403;-59
2022/03/12 06:55:44;;;;;;;;;;;4.80;83.70;;;;;;5056534;28;20011;-58
2022/03/12 06:58:09;;;;;;;;;;;4.90;84.30;;;;;;5074636;28;19931;-58
2022/03/12 07:00:35;;;;;;;;;;;4.90;84.20;;;;;;5072926;28;20322;-60
2022/03/12 07:03:01;;;;;;;;;;;4.90;84.10;;;;;;5074187;28;19924;-61
2022/03/12 07:05:27;;;;;;;;;;;5.00;83.90;;;;;;5074531;28;20019;-59
2022/03/12 07:07:53;;;;;;;;;;;5.00;83.80;;;;;;5073681;28;19974;-57
2022/03/12 07:10:19;;;;;;;;;;;5.00;83.00;;;;;;5072940;28;20357;-60
2022/03/12 07:12:46;;;;;;;;;;;5.00;83.50;;;;;;5072289;28;19971;-60
2022/03/12 07:15:12;;;;;;;;;;;5.00;83.80;;;;;;5072712;28;19925;-60
2022/03/12 07:17:38;;;;;;;;;;;5.30;83.80;;;;;;5073684;28;19928;-60
2022/03/12 07:20:05;;;;;;;;;;;5.20;83.00;;;;;;5072528;28;19924;-58
2022/03/12 07:22:31;;;;;;;;;;;5.30;82.90;;;;;;5072713;28;19981;-59
2022/03/12 07:24:58;;;;;;;;;;;5.30;82.80;;;;;;5073383;28;19967;-59
2022/03/12 07:27:24;;;;;;;;;;;5.40;82.80;;;;;;5073837;28;19932;-60
2022/03/12 07:29:51;;;;;;;;;;;5.60;82.60;;;;;;5072120;28;20266;-60
2022/03/12 07:32:16;;;;;;;;;;;5.80;81.80;;;;;;5072725;28;19999;-60
2022/03/12 07:34:42;;;;;;;;;;;5.80;81.60;;;;;;5073132;28;19955;-60
2022/03/12 07:37:11;;;;;;;;;;;5.70;81.90;;;;;;5072571;28;19968;-60
2022/03/12 07:39:37;;;;;;;;;;;5.80;82.60;;;;;;5072120;28;19924;-63
2022/03/12 07:42:03;;;;;;;;;;;5.90;82.50;;;;;;5073537;28;19968;-59
2022/03/12 07:44:29;;;;;;;;;;;6.10;82.50;;;;;;5073263;28;20380;-60
2022/03/12 07:46:55;;;;;;;;;;;6.50;82.50;;;;;;5072659;28;20443;-60
2022/03/12 07:49:20;;;;;;;;;;;7.10;79.80;;;;;;5073489;28;19925;-59
2022/03/12 07:51:47;;;;;;;;;;;7.60;78.00;;;;;;5072952;28;19925;-60
2022/03/12 07:54:14;;;;;;;;;;;8.10;78.50;;;;;;5073059;28;19983;-60
2022/03/12 07:56:40;;;;;;;;;;;8.80;76.00;;;;;;5072833;28;19928;-60
2022/03/12 07:59:06;;;;;;;;;;;9.40;74.20;;;;;;5073314;28;20291;-59
2022/03/12 08:01:31;;;;;;;;;;;9.80;71.70;;;;;;5073163;28;20305;-59
2022/03/12 08:03:58;;;;;;;;;;;10.20;69.70;;;;;;5072762;28;20560;-60
2022/03/12 08:06:24;;;;;;;;;;;10.50;69.00;;;;;;5072685;28;20416;-59
2022/03/12 08:08:50;;;;;;;;;;;10.90;67.70;;;;;;5071347;28;19925;-59
2022/03/12 08:11:25;;;;;;;;;;;11.10;67.40;;;;;;5071616;28;20378;-60
2022/03/12 08:14:02;;;;;;;;;;;11.50;68.60;;;;;;5072662;28;19924;-60
2022/03/12 08:16:28;;;;;;;;;;;12.10;66.50;;;;;;5072757;28;20393;-59
2022/03/12 08:18:54;;;;;;;;;;;12.40;64.40;;;;;;5072333;28;20294;-59
2022/03/12 08:21:20;;;;;;;;;;;12.30;65.20;;;;;;5072802;28;19931;-59
2022/03/12 08:23:46;;;;;;;;;;;12.20;63.90;;;;;;5071582;28;19931;-59
2022/03/12 08:26:12;;;;;;;;;;;12.00;64.80;;;;;;5072755;28;20073;-59
2022/03/12 08:28:38;;;;;;;;;;;12.10;65.20;;;;;;5071731;28;20011;-59
2022/03/12 08:31:05;;;;;;;;;;;12.50;64.50;;;;;;5071646;28;19924;-59
2022/03/12 08:33:30;;;;;;;;;;;12.50;63.70;;;;;;5072658;28;19931;-59
2022/03/12 08:35:57;;;;;;;;;;;12.40;64.20;;;;;;5072151;28;19924;-60
2022/03/12 08:38:22;;;;;;;;;;;12.30;64.80;;;;;;5070945;28;19932;-59
2022/03/12 08:40:48;;;;;;;;;;;12.60;64.40;;;;;;5071996;28;19944;-59
2022/03/12 08:43:14;;;;;;;;;;;12.90;64.60;;;;;;5054832;28;19924;-59
2022/03/12 08:45:39;;;;;;;;;;;12.90;63.60;;;;;;5072435;28;19982;-59
2022/03/12 08:48:05;;;;;;;;;;;12.90;64.20;;;;;;5071574;28;20011;-59
2022/03/12 08:50:32;;;;;;;;;;;13.20;63.50;;;;;;5072002;28;19928;-59
2022/03/12 08:52:58;;;;;;;;;;;13.40;64.20;;;;;;5070829;28;19972;-59
2022/03/12 08:55:24;;;;;;;;;;;13.80;63.60;;;;;;5071260;28;20015;-60
2022/03/12 08:57:51;;;;;;;;;;;14.00;62.60;;;;;;5054029;28;20024;-60
2022/03/12 09:00:18;;;;;;;;;;;13.80;62.80;;;;;;5071996;28;20015;-59
2022/03/12 09:02:44;;;;;;;;;;;13.60;63.20;;;;;;5070803;28;19932;-59
2022/03/12 09:05:12;;;;;;;;;;;13.40;63.30;;;;;;5071885;28;19947;-59
2022/03/12 09:07:38;;;;;;;;;;;13.40;63.40;;;;;;5072059;28;19978;-58
2022/03/12 09:10:05;;;;;;;;;;;13.10;63.60;;;;;;5071464;28;19971;-59
2022/03/12 09:12:31;;;;;;;;;;;13.20;64.00;;;;;;5071473;28;19924;-59
2022/03/12 09:14:57;;;;;;;;;;;13.10;64.10;;;;;;5071463;28;20015;-59
2022/03/12 09:17:22;;;;;;;;;;;13.10;64.80;;;;;;5053908;28;20011;-61
2022/03/12 09:19:48;;;;;;;;;;;13.10;65.10;;;;;;5071524;28;20035;-63
2022/03/12 09:22:14;;;;;;;;;;;12.90;64.90;;;;;;5071849;28;19983;-60
2022/03/12 09:24:40;;;;;;;;;;;12.60;65.30;;;;;;5071860;28;19977;-60
2022/03/12 09:27:06;;;;;;;;;;;12.40;66.40;;;;;;5071460;28;19943;-60
2022/03/12 09:29:32;;;;;;;;;;;12.20;66.60;;;;;;5070483;28;19950;-61
2022/03/12 09:31:59;;;;;;;;;;;12.10;67.40;;;;;;5069869;28;19928;-58
2022/03/12 09:34:25;;;;;;;;;;;12.10;67.30;;;;;;5071448;28;19932;-61
2022/03/12 09:36:50;;;;;;;;;;;12.10;67.60;;;;;;5053446;28;19925;-62
2022/03/12 09:39:16;;;;;;;;;;;12.00;68.40;;;;;;5071328;28;20412;-59
2022/03/12 09:41:43;;;;;;;;;;;12.00;68.20;;;;;;5071234;28;20021;-59
2022/03/12 09:44:09;;;;;;;;;;;12.10;68.50;;;;;;5074003;28;19928;-60
2022/03/12 09:46:34;;;;;;;;;;;12.10;69.00;;;;;;5074379;28;20289;-59
2022/03/12 09:49:00;;;;;;;;;;;12.20;69.00;;;;;;5075406;28;19925;-63
2022/03/12 09:51:28;;;;;;;;;;;12.20;69.20;;;;;;5075663;28;19931;-60
2022/03/12 09:54:00;;;;;;;;;;;12.30;69.70;;;;;;5073892;28;20027;-60
2022/03/12 09:56:26;;;;;;;;;;;12.30;69.80;;;;;;5075715;28;20286;-60
2022/03/12 09:58:52;;;;;;;;;;;12.40;70.20;;;;;;5074177;28;20050;-62
2022/03/12 10:01:17;;;;;;;;;;;12.40;70.60;;;;;;5073725;28;19925;-60
2022/03/12 10:03:43;;;;;;;;;;;12.60;71.40;;;;;;5108181;28;20373;-59
2022/03/12 10:06:10;;;;;;;;;;;12.70;72.10;;;;;;5074000;28;19931;-60
2022/03/12 10:08:36;;;;;;;;;;;12.80;72.90;;;;;;5075573;28;19924;-60
2022/03/12 10:11:04;;;;;;;;;;;12.90;73.60;;;;;;5056861;28;19973;-59
2022/03/12 10:13:30;;;;;;;;;;;13.00;74.10;;;;;;5075162;28;19924;-59
2022/03/12 10:15:55;;;;;;;;;;;13.00;75.00;;;;;;5075064;28;20281;-61
2022/03/12 10:18:22;;;;;;;;;;;13.10;75.00;;;;;;5073845;28;19936;-60
2022/03/12 10:20:48;;;;;;;;;;;13.20;75.20;;;;;;5073812;28;19925;-59
2022/03/12 10:23:14;;;;;;;;;;;13.10;76.40;;;;;;5074322;28;20066;-59
2022/03/12 10:25:39;;;;;;;;;;;13.10;76.80;;;;;;5074886;28;19925;-59
2022/03/12 10:28:05;;;;;;;;;;;13.20;77.50;;;;;;5072454;28;19993;-60
2022/03/12 10:30:31;;;;;;;;;;;13.30;78.40;;;;;;5072485;28;19975;-59
2022/03/12 10:32:57;;;;;;;;;;;13.30;78.30;;;;;;5072941;28;19924;-62
2022/03/12 10:35:23;;;;;;;;;;;13.40;79.30;;;;;;5056806;28;19978;-59
2022/03/12 10:37:51;;;;;;;;;;;13.40;79.50;;;;;;5073920;28;19924;-60
2022/03/12 10:40:18;;;;;;;;;;;13.40;80.30;;;;;;5056245;28;19932;-59
2022/03/12 10:42:46;;;;;;;;;;;13.40;80.30;;;;;;5073552;28;20023;-60
2022/03/12 10:45:13;;;;;;;;;;;13.40;81.40;;;;;;5071716;28;19974;-60
2022/03/12 10:47:40;;;;;;;;;;;13.40;81.70;;;;;;5074288;28;19978;-59
2022/03/12 10:50:11;;;;;;;;;;;13.40;81.80;;;;;;5074104;28;19925;-60
2022/03/12 10:52:40;;;;;;;;;;;13.40;82.80;;;;;;5057238;28;19924;-60
2022/03/12 10:55:10;;;;;;;;;;;13.50;82.70;;;;;;5071653;28;19946;-61
2022/03/12 10:57:36;;;;;;;;;;;13.60;83.20;;;;;;5073242;28;19932;-60
2022/03/12 11:00:08;;;;;;;;;;;13.60;84.90;;;;;;5073861;28;19937;-61
2022/03/12 11:02:33;;;;;;;;;;;13.60;85.10;;;;;;5107356;28;19947;-60
2022/03/12 11:05:03;;;;;;;;;;;13.60;85.80;;;;;;5072671;28;19924;-62
2022/03/12 11:07:30;;;;;;;;;;;13.60;86.90;;;;;;5074223;28;19924;-60
2022/03/12 11:09:56;;;;;;;;;;;13.60;87.70;;;;;;5072641;28;20487;-61
2022/03/12 11:12:31;;;;;;;;;;;13.60;88.00;;;;;;5073647;28;19928;-60
2022/03/12 11:15:05;;;;;;;;;;;13.60;89.00;;;;;;5071019;28;20027;-59
2022/03/12 11:17:42;;;;;;;;;;;13.50;90.20;;;;;;5073935;28;19932;-61
2022/03/12 11:20:15;;;;;;;;;;;13.60;90.20;;;;;;5073435;28;19931;-59
2022/03/12 11:22:41;;;;;;;;;;;13.60;90.40;;;;;;5074297;28;19925;-59
2022/03/12 11:25:09;;;;;;;;;;;13.70;90.60;;;;;;5072082;28;20370;-59
2022/03/12 11:27:35;;;;;;;;;;;13.70;90.80;;;;;;5073737;28;20021;-60
2022/03/12 11:30:04;;;;;;;;;;;13.80;90.50;;;;;;5072818;28;19994;-59
2022/03/12 11:32:34;;;;;;;;;;;13.80;90.60;;;;;;5072526;28;19931;-59
2022/03/12 11:35:06;;;;;;;;;;;13.90;90.60;;;;;;5072740;28;19947;-59
2022/03/12 11:37:34;;;;;;;;;;;13.90;90.60;;;;;;5073716;28;19935;-60
2022/03/12 11:39:59;;;;;;;;;;;13.80;91.00;;;;;;5072182;28;19931;-60
2022/03/12 11:42:26;;;;;;;;;;;13.80;91.10;;;;;;5039053;28;19925;-60
2022/03/12 11:44:54;;;;;;;;;;;13.90;91.20;;;;;;5072013;28;20435;-60
2022/03/12 11:47:21;;;;;;;;;;;14.00;91.50;;;;;;5072496;28;19928;-60
2022/03/12 11:49:47;;;;;;;;;;;14.00;92.00;;;;;;5105854;28;19925;-61
2022/03/12 11:52:14;;;;;;;;;;;14.00;92.10;;;;;;5071508;28;20285;-60
2022/03/12 11:54:43;;;;;;;;;;;14.10;93.10;;;;;;5073442;28;19925;-61
2022/03/12 11:57:28;;;;;;;;;;;14.10;93.10;;;;;;5072811;28;19925;-61
2022/03/12 11:59:54;;;;;;;;;;;14.20;93.20;;;;;;5071921;28;19924;-61
2022/03/12 12:02:19;;;;;;;;;;;14.20;93.70;;;;;;5072279;28;20322;-60
2022/03/12 12:04:45;;;;;;;;;;;14.20;94.10;;;;;;5070791;28;19925;-61
2022/03/12 12:07:11;;;;;;;;;;;14.30;94.30;;;;;;5104874;28;19924;-61
2022/03/12 12:09:37;;;;;;;;;;;14.20;94.30;;;;;;5073044;28;19924;-60
2022/03/12 12:12:09;;;;;;;;;;;14.20;94.60;;;;;;5072517;28;19924;-61
2022/03/12 12:14:35;;;;;;;;;;;14.20;94.60;;;;;;5071475;28;19931;-60
2022/03/12 12:17:01;;;;;;;;;;;14.20;95.10;;;;;;5072639;28;20015;-60
2022/03/12 12:19:27;;;;;;;;;;;14.20;95.40;;;;;;5072158;28;20020;-60
2022/03/12 12:21:53;;;;;;;;;;;14.20;95.50;;;;;;5071723;28;19925;-60
2022/03/12 12:24:25;;;;;;;;;;;14.30;95.50;;;;;;5070960;28;20397;-60
2022/03/12 12:26:58;;;;;;;;;;;14.40;95.10;;;;;;5072412;28;20003;-59
2022/03/12 12:29:43;;;;;;;;;;;14.50;94.60;;;;;;5071115;28;20276;-59
2022/03/12 12:32:09;;;;;;;;;;;14.50;94.50;;;;;;5072617;28;20377;-59
2022/03/12 12:34:35;;;;;;;;;;;14.40;94.70;;;;;;5071008;28;19924;-59
2022/03/12 12:37:01;;;;;;;;;;;14.50;94.50;;;;;;5071164;28;20377;-60
2022/03/12 12:39:27;;;;;;;;;;;14.40;94.50;;;;;;5071755;28;19925;-60
2022/03/12 12:41:54;;;;;;;;;;;14.40;94.50;;;;;;5072663;28;19939;-60
2022/03/12 12:44:39;;;;;;;;;;;14.40;94.60;;;;;;5070703;28;19974;-60
2022/03/12 12:47:06;;;;;;;;;;;14.50;94.90;;;;;;5071144;28;19925;-60
2022/03/12 12:49:35;;;;;;;;;;;14.50;95.30;;;;;;5070770;28;19986;-60
2022/03/12 12:52:02;;;;;;;;;;;14.60;95.00;;;;;;5072035;28;20409;-60
2022/03/12 12:54:50;;;;;;;;;;;14.70;93.30;;;;;;5071708;28;19924;-59
2022/03/12 12:57:16;;;;;;;;;;;14.70;93.40;;;;;;5065707;28;19928;-61
2022/03/12 12:59:44;;;;;;;;;;;14.80;93.50;;;;;;5070392;28;19993;-59
2022/03/12 13:02:10;;;;;;;;;;;14.80;93.80;;;;;;5070764;28;19924;-60
2022/03/12 13:04:51;;;;;;;;;;;14.70;93.80;;;;;;5070554;28;19978;-59
2022/03/12 13:07:19;;;;;;;;;;;14.70;94.10;;;;;;5071520;28;20393;-63
2022/03/12 13:09:48;;;;;;;;;;;14.70;94.10;;;;;;5072060;28;19924;-60
2022/03/12 13:12:15;;;;;;;;;;;14.70;94.10;;;;;;5071796;28;20061;-60
2022/03/12 13:14:41;;;;;;;;;;;14.70;93.50;;;;;;5071639;28;19931;-61
2022/03/12 13:17:08;;;;;;;;;;;14.70;93.50;;;;;;5071851;28;19925;-60
2022/03/12 13:19:34;;;;;;;;;;;14.70;93.70;;;;;;5070044;28;19925;-60
2022/03/12 13:22:01;;;;;;;;;;;14.80;94.40;;;;;;5071932;28;19931;-60
2022/03/12 13:24:27;;;;;;;;;;;14.70;94.70;;;;;;5070228;28;19925;-60
2022/03/12 13:26:53;;;;;;;;;;;14.80;94.70;;;;;;5071674;28;19925;-60
2022/03/12 13:29:20;;;;;;;;;;;14.80;94.60;;;;;;5069827;28;19924;-62
2022/03/12 13:31:46;;;;;;;;;;;14.80;94.80;;;;;;5071364;28;19946;-60
2022/03/12 13:34:15;;;;;;;;;;;14.80;94.90;;;;;;5070844;28;19928;-60
2022/03/12 13:36:43;;;;;;;;;;;14.80;95.10;;;;;;5069349;28;19921;-60
2022/03/12 13:39:10;;;;;;;;;;;14.90;94.80;;;;;;5071241;28;19946;-61
2022/03/12 13:41:37;;;;;;;;;;;14.80;94.70;;;;;;5052006;28;19971;-60
2022/03/12 13:44:02;;;;;;;;;;;14.80;94.70;;;;;;5069976;28;19928;-60
2022/03/12 13:46:29;;;;;;;;;;;14.80;94.50;;;;;;5069242;28;19980;-60
2022/03/12 13:48:56;;;;;;;;;;;14.70;94.60;;;;;;5070855;28;19924;-59
2022/03/12 13:51:22;;;;;;;;;;;14.70;94.60;;;;;;5069523;28;19939;-62
2022/03/12 13:53:52;;;;;;;;;;;14.80;94.50;;;;;;5071540;28;19980;-59
2022/03/12 13:56:18;;;;;;;;;;;14.70;94.50;;;;;;5104435;28;19933;-60
2022/03/12 13:58:46;;;;;;;;;;;14.70;94.50;;;;;;5053202;28;19931;-60
2022/03/12 14:01:29;;;;;;;;;;;14.70;94.60;;;;;;5071589;28;19976;-60
2022/03/12 14:03:54;;;;;;;;;;;14.70;94.40;;;;;;5070677;28;19924;-59
2022/03/12 14:06:27;;;;;;;;;;;14.60;94.20;;;;;;5070928;28;19947;-60
2022/03/12 14:08:54;;;;;;;;;;;14.70;94.20;;;;;;5069319;28;19981;-60
2022/03/12 14:11:30;;;;;;;;;;;14.70;93.90;;;;;;5069907;28;19925;-58
2022/03/12 14:14:00;;;;;;;;;;;14.70;93.20;;;;;;5070304;28;20010;-60
2022/03/12 14:16:27;;;;;;;;;;;14.60;93.70;;;;;;5069696;28;19928;-62
2022/03/12 14:19:02;;;;;;;;;;;14.60;94.00;;;;;;5070400;28;20373;-60
2022/03/12 14:21:37;;;;;;;;;;;14.60;93.90;;;;;;5070679;28;19925;-60
2022/03/12 14:24:10;;;;;;;;;;;14.60;93.80;;;;;;5071388;28;19928;-60